Time;durP1;ratioP1;P1;durP2;ratioP2;P2;SDS_P1;SDS_P2;PMS_P1;PMS_P2;Temp;Humidity;BMP_temperature;BMP_pressure;BME280_temperature;BME280_humidity;BME280_pressure;Samples;Min_cycle;Max_cycle;Signal;HPM_P1;HPM_P2
2022/01/21 00:02:29;;;;;;;5.30;1.40;;;-0.90;99.90;;;-0.40;100.00;-19713.31;5110935;28;20695;-63
2022/01/21 00:04:57;;;;;;;3.67;1.40;;;-0.90;99.90;;;-0.21;100.00;-19719.81;5111624;28;20660;-63
2022/01/21 00:07:25;;;;;;;5.87;1.70;;;-0.90;99.90;;;-0.21;100.00;-19719.81;5109777;28;20227;-63
2022/01/21 00:09:53;;;;;;;5.87;2.00;;;-0.90;99.90;;;-0.36;100.00;-19714.69;5111379;28;20224;-63
2022/01/21 00:12:21;;;;;;;4.63;1.73;;;-0.90;99.90;;;-0.29;100.00;-19717.06;5110881;28;20223;-63
2022/01/21 00:14:50;;;;;;;3.73;1.50;;;-0.90;99.90;;;-0.25;100.00;-19718.28;5111244;28;20216;-63
2022/01/21 00:17:21;;;;;;;1.80;1.20;;;-0.90;99.90;;;-0.30;100.00;-19716.75;5111440;28;20236;-62
2022/01/21 00:30:01;;;;;;;2.53;1.40;;;-0.90;99.90;;;-0.35;100.00;-19715.03;5111942;28;20290;-62
2022/01/21 00:31:07;;;;;;;6.90;1.97;;;-1.10;99.90;;;-0.45;100.00;-19711.44;5047660;28;20252;-62
2022/01/21 00:33:35;;;;;;;2.20;1.27;;;-1.10;99.90;;;-0.33;100.00;-19715.72;5096460;28;20580;-62
2022/01/21 00:36:06;;;;;;;5.63;1.30;;;-1.00;99.90;;;-0.25;100.00;-19718.28;5111290;28;20472;-62
2022/01/21 00:38:34;;;;;;;6.67;1.63;;;-1.00;99.90;;;-0.25;100.00;-19718.28;5111396;28;20308;-62
2022/01/21 00:41:05;;;;;;;5.20;2.00;;;-0.90;99.90;;;-0.51;100.00;-19709.38;5111444;28;20297;-63
2022/01/21 00:43:43;;;;;;;2.83;1.40;;;-1.00;99.90;;;-0.38;100.00;-19714.00;5110721;28;20247;-62
2022/01/21 00:46:12;;;;;;;4.03;1.60;;;-1.10;99.90;;;-0.59;100.00;-19706.81;5111104;28;20225;-63
2022/01/21 00:48:40;;;;;;;4.30;1.13;;;-1.10;99.90;;;-0.61;100.00;-19706.13;5111281;28;20249;-62
2022/01/21 00:51:10;;;;;;;2.43;1.37;;;-1.10;99.90;;;-0.60;100.00;-19706.47;5110966;28;20301;-62
2022/01/21 00:53:38;;;;;;;5.03;1.30;;;-1.10;99.90;;;-0.59;100.00;-19706.66;5111583;28;20316;-62
2022/01/21 00:56:06;;;;;;;6.27;1.80;;;-1.10;99.90;;;-0.56;100.00;-19707.84;5111043;28;20233;-63
2022/01/21 00:58:34;;;;;;;5.27;1.97;;;-1.20;99.90;;;-0.63;100.00;-19705.28;5111562;28;20234;-62
2022/01/21 01:01:02;;;;;;;4.77;1.77;;;-1.20;99.90;;;-0.71;100.00;-19702.56;5110727;28;20250;-61
2022/01/21 01:03:31;;;;;;;5.87;1.50;;;-1.20;99.90;;;-0.68;100.00;-19703.75;5110975;28;20223;-64
2022/01/21 01:05:59;;;;;;;3.73;1.60;;;-1.20;99.90;;;-0.66;100.00;-19704.44;5110575;28;20222;-63
2022/01/21 01:08:28;;;;;;;4.57;1.83;;;-1.30;99.90;;;-0.71;100.00;-19702.56;5101550;28;20247;-63
2022/01/21 01:11:16;;;;;;;3.93;1.33;;;-1.20;99.90;;;-0.59;100.00;-19706.81;5090895;28;20746;-63
2022/01/21 01:22:14;;;;;;;3.23;1.40;;;-1.30;99.90;;;-0.47;100.00;-19710.91;5105647;28;20330;-63
2022/01/21 01:27:37;;;;;;;2.97;1.40;;;-1.20;99.90;;;-0.62;100.00;-19705.78;5114543;28;20257;-62
2022/01/21 01:30:09;;;;;;;3.00;1.23;;;-1.20;99.90;;;-0.63;100.00;-19705.47;5115182;27;20321;-62
2022/01/21 01:32:38;;;;;;;2.50;1.27;;;-1.20;99.90;;;-0.60;100.00;-19706.31;5115010;27;20227;-62
2022/01/21 01:35:08;;;;;;;6.17;2.07;;;-1.20;99.90;;;-0.49;100.00;-19710.25;5114949;28;20207;-63
2022/01/21 01:37:57;;;;;;;3.63;1.47;;;-1.20;99.90;;;-0.58;100.00;-19707.16;5115353;28;20235;-62
2022/01/21 01:40:30;;;;;;;3.87;1.37;;;-1.20;99.90;;;-0.54;100.00;-19708.38;5114417;28;20748;-62
2022/01/21 01:49:24;;;;;;;3.87;1.53;;;-1.20;99.90;;;-0.63;100.00;-19705.28;5114652;28;20324;-63
2022/01/21 01:51:33;;;;;;;5.17;1.50;;;-1.30;99.90;;;-0.75;100.00;-19701.19;5115285;28;20297;-62
2022/01/21 01:54:08;;;;;;;4.43;1.27;;;-1.30;99.90;;;-0.80;100.00;-19699.47;5115632;27;20770;-62
2022/01/21 01:56:48;;;;;;;3.97;1.47;;;-1.30;99.90;;;-0.74;100.00;-19701.69;5114713;28;20242;-61
2022/01/21 01:59:17;;;;;;;4.37;1.37;;;-1.40;99.90;;;-0.66;100.00;-19704.44;5115039;28;20184;-63
2022/01/21 02:01:52;;;;;;;3.17;1.30;;;-1.30;99.90;;;-0.74;100.00;-19701.53;5098751;28;20235;-61
2022/01/21 02:04:23;;;;;;;3.83;1.33;;;-1.30;99.90;;;-0.54;100.00;-19708.38;5094175;28;20600;-62
2022/01/21 02:06:51;;;;;;;6.40;1.53;;;-1.30;99.90;;;-0.59;100.00;-19706.66;5093929;28;20258;-62
2022/01/21 02:09:19;;;;;;;4.80;1.30;;;-1.30;99.90;;;-0.71;100.00;-19702.56;5093857;28;20321;-62
2022/01/21 02:11:49;;;;;;;4.50;1.30;;;-1.30;99.90;;;-0.78;100.00;-19700.31;5093733;28;20235;-62
2022/01/21 02:14:22;;;;;;;6.03;1.40;;;-1.30;99.90;;;-0.79;100.00;-19699.97;5093858;28;20338;-62
2022/01/21 02:17:14;;;;;;;2.83;1.27;;;-1.30;99.90;;;-0.76;100.00;-19700.84;5094036;28;20286;-62
2022/01/21 02:22:34;;;;;;;2.27;1.10;;;-1.30;99.90;;;-0.66;100.00;-19704.25;5114224;28;20258;-62
2022/01/21 02:25:15;;;;;;;3.73;1.20;;;-1.30;99.90;;;-0.58;100.00;-19707.16;5113645;28;20267;-62
2022/01/21 02:27:46;;;;;;;2.27;1.00;;;-1.30;99.90;;;-0.75;100.00;-19701.34;5114284;28;20230;-62
2022/01/21 02:30:19;;;;;;;4.93;1.30;;;-1.30;99.90;;;-0.88;100.00;-19696.72;5115076;28;20228;-62
2022/01/21 02:32:49;;;;;;;2.87;1.17;;;-1.40;99.90;;;-0.96;100.00;-19694.16;5114442;28;20749;-62
2022/01/21 02:35:20;;;;;;;3.20;1.30;;;-1.50;99.90;;;-0.83;100.00;-19698.59;5114748;28;20266;-62
2022/01/21 02:37:50;;;;;;;4.40;1.23;;;-1.50;99.90;;;-0.94;100.00;-19694.84;5114368;28;20274;-62
2022/01/21 02:40:20;;;;;;;3.00;1.03;;;-1.50;99.90;;;-0.92;100.00;-19695.53;5113762;28;20254;-62
2022/01/21 02:42:48;;;;;;;5.17;1.47;;;-1.50;99.90;;;-0.79;100.00;-19699.81;5113394;28;20266;-62
2022/01/21 02:45:18;;;;;;;5.23;1.10;;;-1.50;99.90;;;-0.89;100.00;-19696.38;5113530;28;20238;-63
2022/01/21 02:47:47;;;;;;;3.00;1.20;;;-1.50;99.90;;;-0.77;100.00;-19700.50;5113886;28;20247;-62
2022/01/21 02:50:16;;;;;;;4.37;1.60;;;-1.50;99.90;;;-0.71;100.00;-19702.56;5113574;28;20245;-63
2022/01/21 02:52:56;;;;;;;2.93;1.33;;;-1.50;99.90;;;-0.84;100.00;-19698.09;5114701;28;20198;-63
2022/01/21 02:55:26;;;;;;;2.53;1.13;;;-1.50;99.90;;;-0.91;100.00;-19695.88;5113967;28;20263;-63
2022/01/21 02:57:54;;;;;;;4.70;1.30;;;-1.50;99.90;;;-0.75;100.00;-19701.34;5112785;28;20258;-63
2022/01/21 03:00:22;;;;;;;2.80;1.40;;;-1.50;99.90;;;-0.93;100.00;-19695.03;5114385;28;20290;-63
2022/01/21 03:02:50;;;;;;;4.50;1.20;;;-1.50;99.90;;;-1.12;100.00;-19688.53;5113927;27;20706;-63
2022/01/21 03:05:19;;;;;;;5.07;1.30;;;-1.60;99.90;;;-0.78;100.00;-19700.16;5113266;28;20237;-63
2022/01/21 03:07:48;;;;;;;5.10;1.27;;;-1.60;99.90;;;-1.02;100.00;-19692.13;5110161;28;20290;-63
2022/01/21 03:10:17;;;;;;;7.33;1.40;;;-1.60;99.90;;;-0.91;100.00;-19695.72;5092757;28;20326;-63
2022/01/21 03:12:46;;;;;;;5.40;1.33;;;-1.60;99.90;;;-0.86;100.00;-19697.41;5092401;28;20303;-62
2022/01/21 03:15:14;;;;;;;3.47;1.40;;;-1.50;99.90;;;-0.78;100.00;-19700.31;5092678;28;20306;-63
2022/01/21 03:17:43;;;;;;;7.57;1.73;;;-1.50;99.90;;;-1.00;100.00;-19692.63;5092236;28;20230;-62
2022/01/21 03:20:12;;;;;;;3.13;1.10;;;-1.60;99.90;;;-1.21;100.00;-19685.63;5100452;28;20195;-64
2022/01/21 03:22:40;;;;;;;4.17;2.00;;;-1.60;99.90;;;-1.22;100.00;-19685.44;5113213;28;20276;-63
2022/01/21 03:25:10;;;;;;;2.57;1.20;;;-1.70;99.90;;;-1.20;100.00;-19685.78;5112529;28;20275;-63
2022/01/21 03:27:38;;;;;;;4.17;1.30;;;-1.70;99.90;;;-1.03;100.00;-19691.78;5112235;27;20222;-63
2022/01/21 03:30:11;;;;;;;5.23;1.47;;;-1.70;99.90;;;-1.00;100.00;-19692.63;5112481;28;20609;-63
2022/01/21 03:32:40;;;;;;;3.13;1.27;;;-1.70;99.90;;;-1.09;100.00;-19689.56;5112443;28;20241;-63
2022/01/21 03:35:09;;;;;;;5.83;1.20;;;-1.70;99.90;;;-1.11;100.00;-19689.03;5112834;28;20226;-65
2022/01/21 03:37:37;;;;;;;4.53;1.50;;;-1.70;99.90;;;-1.15;100.00;-19687.66;5112469;28;20279;-62
2022/01/21 03:40:07;;;;;;;3.13;1.50;;;-1.60;99.90;;;-1.09;100.00;-19689.56;5112495;28;20260;-63
2022/01/21 03:42:35;;;;;;;4.20;1.20;;;-1.70;99.90;;;-1.09;100.00;-19689.72;5111814;28;20268;-63
2022/01/21 03:45:04;;;;;;;7.47;1.30;;;-1.70;99.90;;;-1.04;100.00;-19691.44;5112262;28;20219;-63
2022/01/21 03:47:34;;;;;;;3.83;1.23;;;-1.70;99.90;;;-0.97;100.00;-19693.81;5112062;28;20301;-64
2022/01/21 03:50:19;;;;;;;3.67;1.10;;;-1.60;99.90;;;-0.97;100.00;-19693.66;5112762;28;20241;-63
2022/01/21 03:52:47;;;;;;;4.53;1.33;;;-1.60;99.90;;;-0.73;98.94;-19702.03;5111499;28;20235;-63
2022/01/21 03:55:16;;;;;;;2.70;1.30;;;-1.50;99.90;;;-0.78;100.00;-19700.31;5112098;27;20763;-63
2022/01/21 03:57:44;;;;;;;4.13;1.33;;;-1.50;99.90;;;-0.69;98.32;-19703.22;5111642;28;20236;-63
2022/01/21 04:00:19;;;;;;;3.43;1.23;;;-1.50;99.90;;;-0.96;98.80;-19694.00;5111998;28;20298;-64
2022/01/21 04:02:49;;;;;;;2.37;1.10;;;-1.50;99.90;;;-0.95;99.17;-19694.34;5112261;28;20262;-63
2022/01/21 04:05:18;;;;;;;2.43;0.90;;;-1.50;99.90;;;-0.81;98.22;-19699.28;5112077;28;20225;-63
2022/01/21 04:07:47;;;;;;;7.83;2.00;;;-1.50;99.90;;;-0.76;97.20;-19700.84;5108197;28;20200;-63
2022/01/21 04:10:15;;;;;;;4.20;1.40;;;-1.50;99.90;;;-0.88;98.83;-19696.72;5091622;28;20227;-63
2022/01/21 04:12:44;;;;;;;5.30;1.20;;;-1.50;99.90;;;-0.95;98.80;-19694.50;5091328;28;20231;-68
2022/01/21 04:15:13;;;;;;;3.13;0.90;;;-1.60;99.90;;;-1.03;97.83;-19691.59;5091234;28;20758;-64
2022/01/21 04:17:41;;;;;;;2.97;1.30;;;-1.60;99.90;;;-1.08;98.01;-19690.06;5091129;28;20694;-63
2022/01/21 04:20:13;;;;;;;4.67;1.43;;;-1.60;99.90;;;-1.12;97.22;-19688.69;5099191;28;20256;-64
2022/01/21 04:22:41;;;;;;;4.17;1.23;;;-1.70;99.90;;;-1.20;99.39;-19685.78;5112425;28;20245;-65
2022/01/21 04:25:10;;;;;;;2.20;0.90;;;-1.70;99.90;;;-1.07;98.71;-19690.41;5111248;28;20250;-63
2022/01/21 04:27:39;;;;;;;2.53;1.30;;;-1.70;99.90;;;-1.32;99.84;-19681.84;5111261;27;20271;-63
2022/01/21 04:30:10;;;;;;;2.73;1.00;;;-1.80;99.90;;;-1.18;99.61;-19686.66;5111246;28;20229;-62
2022/01/21 04:32:38;;;;;;;3.83;1.10;;;-1.80;99.90;;;-1.18;99.48;-19686.66;5111661;28;20584;-63
2022/01/21 04:35:07;;;;;;;2.43;0.90;;;-1.80;99.90;;;-1.02;98.63;-19691.94;5111471;28;20311;-64
2022/01/21 04:37:42;;;;;;;4.93;1.27;;;-1.70;99.90;;;-0.91;96.95;-19695.88;5111763;28;20244;-63
2022/01/21 04:40:15;;;;;;;3.33;1.13;;;-1.70;99.90;;;-0.91;96.12;-19695.72;5111389;28;20245;-63
2022/01/21 04:48:30;;;;;;;2.83;1.70;;;-1.70;99.90;;;-1.23;99.07;-19684.94;5087612;28;20686;-63
2022/01/21 04:51:11;;;;;;;4.07;1.00;;;-1.80;99.90;;;-1.25;99.54;-19684.25;5089233;28;20238;-63
2022/01/21 04:53:43;;;;;;;2.03;0.83;;;-1.80;99.90;;;-1.20;99.35;-19685.97;5091805;28;20550;-63
2022/01/21 04:56:12;;;;;;;3.03;0.80;;;-1.80;99.90;;;-1.15;99.11;-19687.66;5091324;28;20218;-63
2022/01/21 04:58:41;;;;;;;4.17;1.30;;;-1.80;99.90;;;-1.29;100.00;-19682.88;5094386;28;20230;-63
2022/01/21 05:01:10;;;;;;;1.67;1.00;;;-1.90;99.90;;;-1.14;100.00;-19687.84;5091459;28;20257;-63
2022/01/21 05:03:41;;;;;;;3.33;1.40;;;-1.90;99.90;;;-1.31;100.00;-19682.19;5091550;28;20310;-63
2022/01/21 05:06:10;;;;;;;3.33;1.13;;;-1.90;99.90;;;-1.41;100.00;-19678.78;5090720;28;20290;-62
2022/01/21 05:08:45;;;;;;;2.33;1.03;;;-2.00;99.90;;;-1.45;100.00;-19677.41;5090752;28;20775;-69
2022/01/21 05:11:15;;;;;;;3.57;0.93;;;-2.00;99.90;;;-1.52;100.00;-19675.00;5091221;28;20242;-68
2022/01/21 05:13:52;;;;;;;4.97;1.70;;;-2.10;99.90;;;-1.57;100.00;-19673.31;5091296;28;20199;-68
2022/01/21 05:16:35;;;;;;;5.63;1.00;;;-2.10;99.90;;;-1.53;100.00;-19674.69;5090708;28;20234;-68
2022/01/21 05:19:14;;;;;;;2.93;1.00;;;-2.10;99.90;;;-1.34;100.00;-19681.34;5090538;28;20227;-68
2022/01/21 05:21:42;;;;;;;3.67;1.20;;;-2.00;99.90;;;-1.48;100.00;-19676.56;5090832;28;20227;-69
2022/01/21 05:24:13;;;;;;;6.20;1.30;;;-2.10;99.90;;;-1.40;100.00;-19679.28;5090682;28;20246;-63
2022/01/21 05:26:42;;;;;;;4.13;1.30;;;-2.10;99.90;;;-1.30;100.00;-19682.53;5090673;28;20394;-63
2022/01/21 05:29:12;;;;;;;5.93;1.43;;;-2.00;99.90;;;-1.27;100.00;-19683.56;5090407;28;20237;-63
2022/01/21 05:31:40;;;;;;;3.27;1.30;;;-2.00;99.90;;;-1.39;100.00;-19679.47;5091308;28;20309;-63
2022/01/21 05:34:08;;;;;;;5.07;1.40;;;-2.00;99.90;;;-1.11;100.00;-19689.03;5090336;28;20280;-64
2022/01/21 05:36:40;;;;;;;4.43;1.70;;;-1.90;99.90;;;-1.30;100.00;-19682.53;5090761;28;20227;-64
2022/01/21 05:39:09;;;;;;;5.47;1.80;;;-1.90;99.90;;;-1.17;100.00;-19686.81;5090504;28;20557;-62
2022/01/21 05:41:40;;;;;;;7.57;3.00;;;-1.90;99.90;;;-1.01;100.00;-19692.47;5090708;28;20258;-62
2022/01/21 05:44:13;;;;;;;5.50;3.07;;;-1.80;99.90;;;-1.05;100.00;-19691.09;5090457;28;20779;-63
2022/01/21 05:46:54;;;;;;;9.57;2.00;;;-1.70;99.90;;;-1.10;100.00;-19689.38;5106500;28;20276;-63
2022/01/21 05:49:24;;;;;;;5.73;2.40;;;-1.70;99.90;;;-1.13;100.00;-19688.19;5110749;28;20648;-63
2022/01/21 05:52:00;;;;;;;2.70;1.67;;;-1.70;99.90;;;-1.13;100.00;-19688.19;5110774;28;20314;-64
2022/01/21 05:54:28;;;;;;;3.83;1.73;;;-1.70;99.90;;;-1.02;100.00;-19692.13;5110807;28;20248;-64
2022/01/21 05:56:58;;;;;;;2.97;1.40;;;-1.70;99.90;;;-1.01;100.00;-19692.47;5110613;28;20678;-63
2022/01/21 05:59:26;;;;;;;6.07;1.97;;;-1.60;99.90;;;-0.91;100.00;-19695.72;5111634;28;20636;-63
2022/01/21 06:01:54;;;;;;;5.93;1.90;;;-1.60;99.90;;;-0.95;100.00;-19694.50;5114873;28;20257;-63
2022/01/21 06:04:23;;;;;;;4.20;1.97;;;-1.60;99.90;;;-0.93;100.00;-19695.19;5114246;28;20229;-63
2022/01/21 06:06:51;;;;;;;5.57;2.50;;;-1.60;99.90;;;-0.96;100.00;-19694.00;5114097;28;20302;-68
2022/01/21 06:09:19;;;;;;;3.80;1.90;;;-1.50;99.90;;;-1.12;100.00;-19688.53;5097353;28;20255;-69
2022/01/21 06:11:51;;;;;;;4.57;1.90;;;-1.60;99.90;;;-0.86;100.00;-19697.41;5093142;28;20705;-68
2022/01/21 06:14:21;;;;;;;5.60;2.30;;;-1.60;99.90;;;-0.85;100.00;-19697.94;5094031;28;20215;-68
2022/01/21 06:16:49;;;;;;;5.70;2.10;;;-1.50;99.90;;;-0.77;100.00;-19700.66;5093996;28;20208;-68
2022/01/21 06:19:17;;;;;;;10.23;2.20;;;-1.50;99.90;;;-0.84;100.00;-19698.09;5094658;28;20235;-68
2022/01/21 06:21:45;;;;;;;7.90;2.80;;;-1.50;99.90;;;-0.87;100.00;-19697.25;5114189;28;20230;-68
2022/01/21 06:24:14;;;;;;;5.47;2.60;;;-1.50;99.90;;;-0.88;100.00;-19696.72;5114220;27;20308;-68
2022/01/21 06:26:42;;;;;;;5.27;2.07;;;-1.50;99.90;;;-0.93;100.00;-19695.19;5113697;28;20301;-68
2022/01/21 06:29:10;;;;;;;7.60;2.90;;;-1.50;99.90;;;-0.87;100.00;-19697.06;5116269;28;20198;-67
2022/01/21 06:31:39;;;;;;;8.43;3.30;;;-1.50;99.90;;;-0.80;100.00;-19699.47;5114568;28;20253;-68
2022/01/21 06:34:07;;;;;;;8.03;2.50;;;-1.40;99.90;;;-0.89;100.00;-19696.56;5113999;28;20636;-68
2022/01/21 06:36:41;;;;;;;7.80;2.70;;;-1.50;99.90;;;-0.92;100.00;-19695.38;5113568;27;20923;-67
2022/01/21 06:39:09;;;;;;;5.33;2.70;;;-1.60;99.90;;;-0.84;100.00;-19698.09;5113511;28;20271;-69
2022/01/21 06:41:38;;;;;;;5.23;3.37;;;-1.50;99.90;;;-0.97;100.00;-19693.81;5113085;28;20222;-68
2022/01/21 06:44:07;;;;;;;7.53;2.50;;;-1.50;99.90;;;-0.89;100.00;-19696.56;5113558;28;20302;-67
2022/01/21 06:46:35;;;;;;;8.30;3.23;;;-1.50;99.90;;;-0.81;100.00;-19699.28;5135408;27;20570;-68
2022/01/21 06:49:05;;;;;;;7.33;2.77;;;-1.40;99.90;;;-0.75;100.00;-19701.19;5133833;27;20613;-69
2022/01/21 06:51:33;;;;;;;10.00;2.97;;;-1.40;99.90;;;-0.89;100.00;-19696.56;5133547;27;20317;-68
2022/01/21 06:54:01;;;;;;;9.80;2.90;;;-1.40;99.90;;;-0.79;100.00;-19699.97;5133720;27;20299;-70
2022/01/21 06:56:30;;;;;;;10.33;3.03;;;-1.40;99.90;;;-0.88;100.00;-19696.72;5133381;27;20255;-69
2022/01/21 06:58:59;;;;;;;11.60;3.17;;;-1.40;99.90;;;-0.81;100.00;-19699.28;5134463;27;20280;-68
2022/01/21 07:01:28;;;;;;;8.43;3.40;;;-1.40;99.90;;;-0.68;100.00;-19703.56;5133537;27;20230;-68
2022/01/21 07:03:57;;;;;;;9.43;3.53;;;-1.30;99.90;;;-0.63;100.00;-19705.47;5133883;27;20230;-68
2022/01/21 07:06:26;;;;;;;7.60;3.50;;;-1.30;99.90;;;-0.58;100.00;-19707.16;5133593;27;20667;-69
2022/01/21 07:08:54;;;;;;;13.00;4.70;;;-1.30;99.90;;;-0.62;100.00;-19705.78;5119989;27;20309;-70
2022/01/21 07:11:22;;;;;;;10.57;3.80;;;-1.20;99.90;;;-0.51;100.00;-19709.56;5112629;28;20281;-68
2022/01/21 07:13:50;;;;;;;12.43;4.70;;;-1.20;99.90;;;-0.53;100.00;-19708.69;5113218;28;20305;-69
2022/01/21 07:16:18;;;;;;;6.20;3.87;;;-1.20;99.90;;;-0.57;100.00;-19707.50;5112632;28;20305;-69
2022/01/21 07:18:46;;;;;;;11.50;5.10;;;-1.20;99.90;;;-0.55;100.00;-19708.00;5112942;28;20219;-69
2022/01/21 07:21:14;;;;;;;8.03;4.40;;;-1.20;99.90;;;-0.49;100.00;-19710.25;5112545;28;20262;-69
2022/01/21 07:23:44;;;;;;;17.20;5.60;;;-1.20;99.90;;;-0.59;100.00;-19706.66;5112975;28;20353;-69
2022/01/21 07:26:14;;;;;;;11.03;4.60;;;-1.20;99.90;;;-0.42;100.00;-19712.47;5112943;28;20199;-69
2022/01/21 07:28:42;;;;;;;13.07;5.23;;;-1.10;99.90;;;-0.51;100.00;-19709.38;5113339;28;20222;-69
2022/01/21 07:31:10;;;;;;;8.03;5.33;;;-1.10;99.90;;;-0.51;100.00;-19709.56;5112419;28;20317;-70
2022/01/21 07:33:38;;;;;;;10.10;4.77;;;-1.10;99.90;;;-0.41;100.00;-19712.81;5113055;28;20228;-69
2022/01/21 07:36:07;;;;;;;13.40;4.90;;;-1.10;99.90;;;-0.32;100.00;-19716.06;5112686;27;20230;-69
2022/01/21 07:38:37;;;;;;;10.23;4.70;;;-1.00;99.90;;;-0.10;100.00;-19723.56;5112752;28;20304;-70
2022/01/21 07:41:07;;;;;;;16.13;4.70;;;-0.90;99.90;;;-0.04;100.00;-19725.47;5113085;28;20276;-68
2022/01/21 07:43:40;;;;;;;7.87;4.70;;;-0.80;99.90;;;0.14;100.00;-19731.59;5113040;28;20571;-69
2022/01/21 07:46:08;;;;;;;9.90;3.60;;;-0.60;99.90;;;0.30;100.00;-19736.91;5111406;28;20216;-68
2022/01/21 07:48:36;;;;;;;8.63;3.40;;;-0.60;99.90;;;0.35;100.00;-19738.63;5112200;27;20230;-69
2022/01/21 07:51:04;;;;;;;11.27;4.23;;;-0.50;99.90;;;0.53;100.00;-19744.94;5112328;28;20231;-68
2022/01/21 07:53:32;;;;;;;16.30;6.23;;;-0.40;99.90;;;0.67;100.00;-19749.56;5112772;28;20309;-68
2022/01/21 07:56:01;;;;;;;13.40;4.20;;;-0.30;99.90;;;0.78;100.00;-19753.31;5113101;28;20256;-70
2022/01/21 07:58:32;;;;;;;8.00;3.50;;;-0.10;99.90;;;0.76;100.00;-19752.66;5111503;28;20307;-68
2022/01/21 08:01:00;;;;;;;6.27;2.73;;;0.00;99.90;;;0.91;100.00;-19757.78;5112337;28;20310;-69
2022/01/21 08:03:28;;;;;;;8.30;3.50;;;0.00;99.90;;;1.09;100.00;-19763.94;5111889;28;20258;-69
2022/01/21 08:05:56;;;;;;;8.20;3.30;;;0.10;99.90;;;1.18;100.00;-19767.16;5112024;28;20299;-69
2022/01/21 08:08:26;;;;;;;8.50;3.30;;;0.20;99.90;;;0.99;100.00;-19760.50;5111716;28;20285;-69
2022/01/21 08:10:55;;;;;;;7.83;3.20;;;0.20;99.90;;;1.12;100.00;-19764.94;5112316;28;20256;-68
2022/01/21 08:13:23;;;;;;;8.27;2.97;;;0.20;99.90;;;1.16;100.00;-19766.31;5111394;28;20249;-69
2022/01/21 08:15:52;;;;;;;9.77;3.10;;;0.20;99.90;;;1.10;100.00;-19764.25;5111633;28;20245;-68
2022/01/21 08:18:20;;;;;;;8.33;3.03;;;0.20;99.90;;;1.08;100.00;-19763.59;5111400;28;20661;-68
2022/01/21 08:20:49;;;;;;;9.93;3.23;;;0.20;99.90;;;1.18;100.00;-19767.16;5111576;28;20220;-68
2022/01/21 08:23:17;;;;;;;6.90;3.03;;;0.30;99.90;;;1.11;100.00;-19764.59;5111285;28;20246;-67
2022/01/21 08:25:45;;;;;;;11.43;3.87;;;0.20;99.90;;;1.19;100.00;-19767.50;5111998;28;20247;-68
2022/01/21 08:28:14;;;;;;;7.00;3.50;;;0.20;99.90;;;1.18;100.00;-19767.00;5111143;28;20257;-68
2022/01/21 08:30:42;;;;;;;11.13;3.27;;;0.30;99.90;;;1.16;100.00;-19766.31;5111301;28;20225;-68
2022/01/21 08:33:12;;;;;;;8.13;3.13;;;0.30;99.90;;;1.23;100.00;-19768.72;5111162;28;20669;-68
2022/01/21 08:35:45;;;;;;;8.33;3.40;;;0.30;99.90;;;1.30;100.00;-19770.94;5111234;28;20227;-67
2022/01/21 08:38:13;;;;;;;9.07;3.73;;;0.40;99.90;;;1.22;100.00;-19768.53;5111308;28;20203;-69
2022/01/21 08:40:41;;;;;;;8.00;3.23;;;0.40;99.90;;;1.30;100.00;-19771.09;5111816;28;20257;-68
2022/01/21 08:43:09;;;;;;;11.17;3.50;;;0.40;99.90;;;1.41;100.00;-19774.88;5110968;28;20632;-67
2022/01/21 08:45:38;;;;;;;6.87;3.40;;;0.50;99.90;;;1.35;100.00;-19772.66;5111450;28;20226;-67
2022/01/21 08:48:06;;;;;;;5.70;3.47;;;0.50;99.90;;;1.44;100.00;-19775.72;5111385;28;20288;-62
2022/01/21 08:50:36;;;;;;;12.63;3.20;;;0.60;99.90;;;1.49;100.00;-19777.59;5111356;28;20300;-63
2022/01/21 08:53:36;;;;;;;6.83;2.57;;;0.60;99.90;;;1.62;100.00;-19782.06;5110962;28;20589;-63
2022/01/21 08:55:58;;;;;;;7.73;2.90;;;0.70;99.90;;;1.73;100.00;-19785.81;5110491;28;20211;-64
2022/01/21 08:58:27;;;;;;;10.57;3.37;;;0.80;99.90;;;1.87;100.00;-19790.59;5111059;28;20239;-63
2022/01/21 09:00:55;;;;;;;6.93;2.87;;;0.90;99.90;;;1.93;100.00;-19792.47;5111438;28;20723;-64
2022/01/21 09:03:24;;;;;;;7.53;2.57;;;1.00;99.90;;;2.13;100.00;-19799.47;5110945;28;20338;-63
2022/01/21 09:05:53;;;;;;;10.13;2.90;;;1.10;99.90;;;2.22;100.00;-19802.38;5111294;28;20253;-63
2022/01/21 09:08:25;;;;;;;10.37;2.67;;;1.20;99.90;;;2.41;100.00;-19808.88;5102045;28;20299;-63
2022/01/21 09:10:55;;;;;;;5.87;2.63;;;1.30;99.90;;;2.54;100.00;-19813.16;5091562;28;20275;-63
2022/01/21 09:13:27;;;;;;;8.93;2.87;;;1.40;99.90;;;2.48;100.00;-19811.47;5090242;28;20285;-67
2022/01/21 09:15:58;;;;;;;10.13;2.60;;;1.40;99.90;;;2.41;100.00;-19808.88;5090758;28;20303;-68
2022/01/21 09:18:33;;;;;;;8.93;2.73;;;1.50;99.90;;;2.34;100.00;-19806.50;5090599;28;20248;-68
2022/01/21 09:21:27;;;;;;;9.43;2.90;;;1.40;99.90;;;2.40;100.00;-19808.72;5107209;28;20219;-60
2022/01/21 09:23:56;;;;;;;6.37;3.00;;;1.40;99.90;;;2.31;100.00;-19805.47;5110911;28;20215;-60
2022/01/21 09:26:26;;;;;;;9.23;3.20;;;1.40;99.90;;;2.48;100.00;-19811.28;5111042;28;20457;-66
2022/01/21 09:28:58;;;;;;;8.50;3.00;;;1.50;99.90;;;2.57;100.00;-19814.38;5108277;28;20766;-66
2022/01/21 09:31:26;;;;;;;8.27;3.30;;;1.50;99.90;;;2.66;100.00;-19817.44;5107582;28;20314;-65
2022/01/21 09:34:16;;;;;;;7.30;2.80;;;1.60;99.90;;;2.63;100.00;-19816.25;5108247;28;20305;-68
2022/01/21 09:36:45;;;;;;;9.97;3.23;;;1.60;99.90;;;2.53;100.00;-19812.81;5111786;28;20306;-69
2022/01/21 09:39:15;;;;;;;7.27;2.87;;;1.60;99.90;;;2.67;100.00;-19817.59;5111647;28;20231;-71
2022/01/21 09:41:43;;;;;;;6.57;3.00;;;1.70;99.90;;;2.73;100.00;-19819.81;5111883;28;20265;-62
2022/01/21 09:44:14;;;;;;;8.20;3.23;;;1.70;99.90;;;2.62;100.00;-19815.91;5110967;28;20253;-61
2022/01/21 09:46:47;;;;;;;9.80;4.30;;;1.70;99.90;;;2.74;100.00;-19820.00;5112222;28;20270;-61
2022/01/21 09:49:28;;;;;;;4.63;2.23;;;1.70;99.90;;;2.68;100.00;-19817.94;5111321;28;20313;-62
2022/01/21 09:52:02;;;;;;;7.13;2.73;;;1.70;99.90;;;2.81;100.00;-19822.56;5111192;28;20228;-60
2022/01/21 09:54:33;;;;;;;5.77;2.67;;;1.80;99.90;;;2.88;100.00;-19824.78;5111355;28;20219;-61
2022/01/21 09:57:04;;;;;;;7.97;2.90;;;1.90;99.90;;;2.98;100.00;-19828.38;5110260;28;20302;-62
2022/01/21 09:59:36;;;;;;;7.97;3.00;;;1.90;99.90;;;2.90;100.00;-19825.63;5083783;28;20327;-62
2022/01/21 10:02:07;;;;;;;6.13;2.50;;;2.00;99.90;;;2.93;100.00;-19826.66;5090565;28;20711;-68
2022/01/21 10:04:38;;;;;;;11.40;3.03;;;2.00;99.90;;;2.97;100.00;-19828.03;5090579;28;20232;-65
2022/01/21 10:07:15;;;;;;;4.37;2.30;;;2.00;99.90;;;3.21;100.00;-19836.06;5090598;28;20219;-62
2022/01/21 10:09:45;;;;;;;8.10;2.50;;;2.10;99.90;;;3.16;100.00;-19834.53;5090753;28;20304;-65
2022/01/21 10:12:14;;;;;;;8.87;2.63;;;2.20;99.90;;;3.25;100.00;-19837.44;5091105;28;20247;-64
2022/01/21 10:14:44;;;;;;;7.10;2.97;;;2.20;99.90;;;3.21;100.00;-19836.25;5090859;28;20314;-62
2022/01/21 10:17:14;;;;;;;6.93;2.80;;;2.30;99.90;;;3.22;100.00;-19836.41;5090806;28;20230;-62
2022/01/21 10:19:45;;;;;;;6.40;2.97;;;2.20;99.90;;;3.22;100.00;-19836.41;5094796;28;20270;-64
2022/01/21 10:22:17;;;;;;;8.50;2.77;;;2.30;99.90;;;3.43;100.00;-19843.59;5110973;28;20224;-65
2022/01/21 10:24:53;;;;;;;12.23;3.00;;;2.40;99.90;;;3.48;100.00;-19845.31;5110738;28;20188;-62
2022/01/21 10:27:27;;;;;;;7.47;3.53;;;2.40;99.90;;;3.60;100.00;-19849.56;5111378;28;20218;-60
2022/01/21 10:29:56;;;;;;;8.30;3.30;;;2.50;99.90;;;3.49;100.00;-19845.63;5111078;28;20676;-62
2022/01/21 10:32:35;;;;;;;7.40;2.80;;;2.40;99.90;;;3.69;100.00;-19852.47;5110529;28;20281;-62
2022/01/21 10:35:25;;;;;;;7.83;3.00;;;2.60;99.90;;;3.79;100.00;-19855.72;5110883;27;20222;-62
2022/01/21 10:37:57;;;;;;;6.13;3.27;;;2.70;99.90;;;3.58;100.00;-19848.72;5110761;28;20742;-55
2022/01/21 10:40:35;;;;;;;6.13;2.50;;;2.60;99.90;;;3.28;100.00;-19838.47;5110670;28;20236;-56
2022/01/21 10:43:12;;;;;;;8.43;2.80;;;2.60;99.90;;;3.04;100.00;-19830.44;5109573;28;20302;-55
2022/01/21 10:45:52;;;;;;;9.63;3.00;;;2.40;99.90;;;3.05;100.00;-19830.59;5109213;27;20674;-54
2022/01/21 10:48:20;;;;;;;7.07;2.63;;;2.30;99.90;;;3.11;100.00;-19832.66;5110617;28;20228;-63
2022/01/21 10:51:17;;;;;;;5.93;3.13;;;2.20;99.90;;;3.11;100.00;-19832.66;5109637;28;20687;-60
2022/01/21 10:53:47;;;;;;;8.83;3.20;;;2.30;99.90;;;3.28;100.00;-19838.47;5109984;28;20235;-62
2022/01/21 10:56:18;;;;;;;5.43;3.00;;;2.40;99.90;;;3.63;100.00;-19850.44;5109618;28;20251;-62
2022/01/21 10:58:50;;;;;;;9.30;3.23;;;2.60;99.90;;;4.11;100.00;-19866.84;5109517;28;20238;-60
2022/01/21 11:01:22;;;;;;;5.67;2.80;;;2.80;99.90;;;4.76;100.00;-19889.06;5109753;28;20636;-59